Time;durP1;ratioP1;P1;durP2;ratioP2;P2;SDS_P1;SDS_P2;PMS_P1;PMS_P2;Temp;Humidity;BMP_temperature;BMP_pressure;BME280_temperature;BME280_humidity;BME280_pressure;Samples;Min_cycle;Max_cycle;Signal;HPM_P1;HPM_P2
2022/08/13 00:00:32;;;;;;;7.43;3.92;;;;;;;;;;5129281;27;20050;-69
2022/08/13 00:02:59;;;;;;;28.92;5.30;;;;;;;;;;5147175;27;20037;-69
2022/08/13 00:05:26;;;;;;;5.95;3.60;;;;;;;;;;5149485;27;20518;-69
2022/08/13 00:07:53;;;;;;;8.35;3.97;;;;;;;;;;5128035;27;20515;-69
2022/08/13 00:10:28;;;;;;;8.88;3.38;;;;;;;;;;5136850;27;20027;-69
2022/08/13 00:12:59;;;;;;;7.13;3.72;;;;;;;;;;5118921;27;20043;-69
2022/08/13 00:15:31;;;;;;;4.53;3.50;;;;;;;;;;5131343;27;20042;-69
2022/08/13 00:17:59;;;;;;;9.88;4.10;;;;;;;;;;5142771;27;20042;-69
2022/08/13 00:20:26;;;;;;;9.63;4.35;;;;;;;;;;5136932;27;20034;-69
2022/08/13 00:22:54;;;;;;;7.38;3.85;;;;;;;;;;5116513;27;20503;-69
2022/08/13 00:25:20;;;;;;;7.25;4.55;;;;;;;;;;5122634;27;20046;-69
2022/08/13 00:27:56;;;;;;;6.95;3.78;;;;;;;;;;5130300;27;20064;-69
2022/08/13 00:30:23;;;;;;;9.45;4.30;;;;;;;;;;5131411;27;20126;-69
2022/08/13 00:32:49;;;;;;;6.72;3.58;;;;;;;;;;5150710;27;20394;-69
2022/08/13 00:35:16;;;;;;;8.02;4.22;;;;;;;;;;5149585;27;20039;-69
2022/08/13 00:37:42;;;;;;;5.03;3.53;;;;;;;;;;5146502;27;20070;-69
2022/08/13 00:40:09;;;;;;;7.18;3.80;;;;;;;;;;5133299;27;20039;-69
2022/08/13 00:42:37;;;;;;;5.45;4.07;;;;;;;;;;5116872;27;20505;-69
2022/08/13 00:45:05;;;;;;;6.15;3.85;;;;;;;;;;5150360;27;20034;-69
2022/08/13 00:50:15;;;;;;;8.50;3.72;;;;;;;;;;5116741;28;20043;-69
2022/08/13 00:52:42;;;;;;;10.07;4.18;;;;;;;;;;5122809;27;20480;-69
2022/08/13 00:55:11;;;;;;;6.03;4.18;;;;;;;;;;5142101;27;20484;-69
2022/08/13 00:57:37;;;;;;;6.50;3.83;;;;;;;;;;5149684;27;20091;-69
2022/08/13 01:00:11;;;;;;;6.97;4.28;;;;;;;;;;5149221;27;20114;-69
2022/08/13 01:02:38;;;;;;;6.18;3.85;;;;;;;;;;5129165;27;20031;-69
2022/08/13 01:05:05;;;;;;;5.68;4.03;;;;;;;;;;5128531;27;20047;-69
2022/08/13 01:07:31;;;;;;;4.80;3.85;;;;;;;;;;5135766;27;20049;-70
2022/08/13 01:09:57;;;;;;;9.95;4.10;;;;;;;;;;5152295;27;20580;-68
2022/08/13 01:12:24;;;;;;;6.88;3.88;;;;;;;;;;5144669;27;20046;-69
2022/08/13 01:14:52;;;;;;;6.88;3.92;;;;;;;;;;5140973;27;20104;-69
2022/08/13 01:17:22;;;;;;;9.63;4.15;;;;;;;;;;5145155;27;20065;-69
2022/08/13 01:19:51;;;;;;;6.75;4.07;;;;;;;;;;5148443;27;20042;-68
2022/08/13 01:22:18;;;;;;;6.10;4.30;;;;;;;;;;5153546;27;20046;-69
2022/08/13 01:24:44;;;;;;;5.78;3.97;;;;;;;;;;5146994;27;20039;-68
2022/08/13 01:27:10;;;;;;;6.00;3.80;;;;;;;;;;5140411;27;20056;-69
2022/08/13 01:29:37;;;;;;;8.20;4.10;;;;;;;;;;5154059;27;20042;-69
2022/08/13 01:32:05;;;;;;;7.20;3.95;;;;;;;;;;5114690;27;20035;-69
2022/08/13 01:34:33;;;;;;;7.50;4.43;;;;;;;;;;5130557;27;20046;-69
2022/08/13 01:36:59;;;;;;;6.38;4.13;;;;;;;;;;5132750;27;20046;-69
2022/08/13 01:39:29;;;;;;;6.70;4.35;;;;;;;;;;5131754;27;20042;-69
2022/08/13 01:41:55;;;;;;;7.35;4.20;;;;;;;;;;5118779;27;20082;-69
2022/08/13 01:44:23;;;;;;;10.05;4.40;;;;;;;;;;5130404;27;20134;-69
2022/08/13 01:52:32;;;;;;;7.75;4.00;;;;;;;;;;5132405;27;20467;-69
2022/08/13 01:55:01;;;;;;;7.57;3.88;;;;;;;;;;5150458;27;20113;-68
2022/08/13 01:57:27;;;;;;;8.35;3.85;;;;;;;;;;5141225;27;20050;-68
2022/08/13 01:59:53;;;;;;;14.10;4.45;;;;;;;;;;5143485;27;20038;-69
2022/08/13 02:02:27;;;;;;;9.77;3.78;;;;;;;;;;5144572;27;20038;-68
2022/08/13 02:04:54;;;;;;;6.57;3.45;;;;;;;;;;5140981;27;20130;-68
2022/08/13 02:07:20;;;;;;;6.15;3.28;;;;;;;;;;5134174;27;20050;-68
2022/08/13 02:09:46;;;;;;;7.82;4.20;;;;;;;;;;5120236;27;20051;-69
2022/08/13 02:12:16;;;;;;;6.03;3.85;;;;;;;;;;5134588;27;20335;-69
2022/08/13 02:14:43;;;;;;;5.90;4.32;;;;;;;;;;5117802;27;20030;-69
2022/08/13 02:17:25;;;;;;;5.65;4.30;;;;;;;;;;5114950;27;20042;-68
2022/08/13 02:19:55;;;;;;;5.70;4.13;;;;;;;;;;5146033;27;20042;-69
2022/08/13 02:22:22;;;;;;;10.10;4.60;;;;;;;;;;5120186;27;20476;-69
2022/08/13 02:24:52;;;;;;;7.57;3.75;;;;;;;;;;5121063;27;20046;-69
2022/08/13 02:27:20;;;;;;;8.65;4.43;;;;;;;;;;5146101;27;20512;-69
2022/08/13 02:29:47;;;;;;;7.13;4.10;;;;;;;;;;5131391;27;20035;-69
2022/08/13 02:32:13;;;;;;;4.88;3.70;;;;;;;;;;5144533;27;20037;-69
2022/08/13 02:34:39;;;;;;;6.35;4.65;;;;;;;;;;5133658;27;20514;-69
2022/08/13 02:37:06;;;;;;;5.55;3.53;;;;;;;;;;5145722;27;20035;-69
2022/08/13 02:39:32;;;;;;;6.65;4.35;;;;;;;;;;5126396;27;20042;-69
2022/08/13 02:41:58;;;;;;;8.90;4.20;;;;;;;;;;5124389;27;20048;-68
2022/08/13 02:44:25;;;;;;;8.20;4.35;;;;;;;;;;5132351;27;20495;-70
2022/08/13 02:46:52;;;;;;;6.30;4.82;;;;;;;;;;5146217;27;20114;-69
2022/08/13 02:49:21;;;;;;;7.10;4.53;;;;;;;;;;5114113;27;20091;-69
2022/08/13 02:51:47;;;;;;;8.98;4.50;;;;;;;;;;5105915;27;20157;-69
2022/08/13 02:54:20;;;;;;;7.32;4.90;;;;;;;;;;5131168;27;20042;-68
2022/08/13 02:56:46;;;;;;;;;;;;;;;;;;5147015;27;20034;-68
2022/08/13 02:59:12;;;;;;;6.32;4.05;;;;;;;;;;5133618;27;19915;-68
2022/08/13 03:01:39;;;;;;;9.73;3.72;;;;;;;;;;5134624;27;20100;-69
2022/08/13 03:04:06;;;;;;;7.70;4.13;;;;;;;;;;5122270;27;20121;-68
2022/08/13 03:06:33;;;;;;;9.18;4.13;;;;;;;;;;5111778;27;20039;-68
2022/08/13 03:09:02;;;;;;;4.72;3.80;;;;;;;;;;5151403;27;20133;-68
2022/08/13 03:11:36;;;;;;;5.43;3.50;;;;;;;;;;5128385;27;20457;-69
2022/08/13 03:14:03;;;;;;;8.15;3.78;;;;;;;;;;5133540;27;20091;-69
2022/08/13 03:16:29;;;;;;;5.35;3.45;;;;;;;;;;5150671;27;20408;-68
2022/08/13 03:18:57;;;;;;;9.20;3.88;;;;;;;;;;5146478;27;20099;-68
2022/08/13 03:21:28;;;;;;;7.60;4.25;;;;;;;;;;5131850;27;20050;-68
2022/08/13 03:23:54;;;;;;;8.05;4.03;;;;;;;;;;5149696;27;20046;-68
2022/08/13 03:26:21;;;;;;;5.43;3.85;;;;;;;;;;5125749;27;20042;-68
2022/08/13 03:28:51;;;;;;;6.22;4.47;;;;;;;;;;5133063;27;20041;-68
2022/08/13 03:31:18;;;;;;;7.65;4.07;;;;;;;;;;5144964;27;20058;-69
2022/08/13 03:33:44;;;;;;;8.73;5.00;;;;;;;;;;5120009;27;20122;-68
2022/08/13 03:36:11;;;;;;;6.55;3.92;;;;;;;;;;5143368;27;20177;-68
2022/08/13 03:38:37;;;;;;;6.75;3.88;;;;;;;;;;5142040;27;20054;-69
2022/08/13 03:41:14;;;;;;;5.72;4.13;;;;;;;;;;5144500;27;20060;-68
2022/08/13 03:43:45;;;;;;;7.43;4.63;;;;;;;;;;5149112;27;20051;-68
2022/08/13 03:46:19;;;;;;;5.63;4.53;;;;;;;;;;5138577;27;20352;-68
2022/08/13 03:48:47;;;;;;;6.10;4.07;;;;;;;;;;5143092;27;20090;-68
2022/08/13 03:51:14;;;;;;;5.50;4.30;;;;;;;;;;5124034;27;20050;-69
2022/08/13 03:53:41;;;;;;;6.72;4.45;;;;;;;;;;5148013;27;20185;-69
2022/08/13 03:56:08;;;;;;;6.45;5.00;;;;;;;;;;5125600;27;20035;-68
2022/08/13 03:58:34;;;;;;;6.30;4.50;;;;;;;;;;5116503;27;20559;-68
2022/08/13 04:01:01;;;;;;;6.68;4.82;;;;;;;;;;5150844;27;20332;-69
2022/08/13 04:03:40;;;;;;;9.30;4.88;;;;;;;;;;5147968;27;20039;-68
2022/08/13 04:06:08;;;;;;;6.03;4.80;;;;;;;;;;5143817;27;20034;-69
2022/08/13 04:08:35;;;;;;;7.28;4.50;;;;;;;;;;5132905;27;20484;-69
2022/08/13 04:11:03;;;;;;;6.30;4.53;;;;;;;;;;5112181;27;20031;-69
2022/08/13 04:13:36;;;;;;;10.07;4.18;;;;;;;;;;5102880;27;20118;-69
2022/08/13 04:16:07;;;;;;;7.10;4.57;;;;;;;;;;5140285;27;20377;-69
2022/08/13 04:18:35;;;;;;;8.07;4.90;;;;;;;;;;5130735;27;20035;-68
2022/08/13 04:21:03;;;;;;;6.10;4.60;;;;;;;;;;5122863;27;20035;-68
2022/08/13 04:23:29;;;;;;;4.85;3.85;;;;;;;;;;5136895;27;20126;-68
2022/08/13 04:25:56;;;;;;;6.43;4.30;;;;;;;;;;5124382;27;20114;-69
2022/08/13 04:28:22;;;;;;;7.15;4.03;;;;;;;;;;5136897;27;20034;-68
2022/08/13 04:30:48;;;;;;;6.45;4.65;;;;;;;;;;5114637;27;20429;-68
2022/08/13 04:33:15;;;;;;;6.38;3.60;;;;;;;;;;5151027;27;20466;-68
2022/08/13 04:35:44;;;;;;;8.30;3.97;;;;;;;;;;5127896;27;20106;-68
2022/08/13 04:38:11;;;;;;;8.55;4.82;;;;;;;;;;5139061;27;20043;-68
2022/08/13 04:40:39;;;;;;;7.15;4.32;;;;;;;;;;5122498;27;20083;-68
2022/08/13 04:43:06;;;;;;;6.07;4.13;;;;;;;;;;5119767;27;20126;-68
2022/08/13 04:45:33;;;;;;;10.38;4.28;;;;;;;;;;5153897;27;20508;-68
2022/08/13 04:48:00;;;;;;;6.65;4.05;;;;;;;;;;5126848;27;20078;-69
2022/08/13 04:50:30;;;;;;;5.35;3.90;;;;;;;;;;5153523;27;20047;-68
2022/08/13 04:52:57;;;;;;;7.78;3.83;;;;;;;;;;5154729;27;20113;-69
2022/08/13 04:55:23;;;;;;;6.35;4.05;;;;;;;;;;5132194;27;20451;-69
2022/08/13 04:57:50;;;;;;;6.43;4.43;;;;;;;;;;5147853;27;20047;-68
2022/08/13 05:00:16;;;;;;;4.85;3.95;;;;;;;;;;5124648;27;20097;-68
2022/08/13 05:02:43;;;;;;;7.18;3.78;;;;;;;;;;5145893;27;20057;-68
2022/08/13 05:05:11;;;;;;;6.72;4.00;;;;;;;;;;5080337;27;20356;-68
2022/08/13 05:07:37;;;;;;;5.15;3.85;;;;;;;;;;5145226;27;20050;-68
2022/08/13 05:10:04;;;;;;;6.45;3.80;;;;;;;;;;5144787;27;20041;-68
2022/08/13 05:12:38;;;;;;;5.13;4.03;;;;;;;;;;5133711;27;20039;-68
2022/08/13 05:15:06;;;;;;;7.07;3.72;;;;;;;;;;5148100;27;20045;-68
2022/08/13 05:17:32;;;;;;;5.50;4.32;;;;;;;;;;5148497;27;20065;-68
2022/08/13 05:19:59;;;;;;;6.70;3.78;;;;;;;;;;5128562;27;20122;-68
2022/08/13 05:22:29;;;;;;;9.45;3.40;;;;;;;;;;5127514;27;20125;-68
2022/08/13 05:24:55;;;;;;;6.15;4.45;;;;;;;;;;5150444;27;20096;-68
2022/08/13 05:27:21;;;;;;;6.00;3.72;;;;;;;;;;5143851;27;20453;-69
2022/08/13 05:29:48;;;;;;;5.85;3.15;;;;;;;;;;5103854;27;20108;-68
2022/08/13 05:32:15;;;;;;;5.05;3.28;;;;;;;;;;5106931;27;20047;-68
2022/08/13 05:34:41;;;;;;;7.82;3.97;;;;;;;;;;5154146;27;20045;-68
2022/08/13 05:37:07;;;;;;;4.93;3.50;;;;;;;;;;5152311;27;20052;-68
2022/08/13 05:39:34;;;;;;;5.07;3.20;;;;;;;;;;5153931;27;20046;-68
2022/08/13 05:42:00;;;;;;;7.03;3.90;;;;;;;;;;5128762;27;20038;-68
2022/08/13 05:44:26;;;;;;;6.57;3.08;;;;;;;;;;5144086;27;20406;-69
2022/08/13 05:46:52;;;;;;;6.13;3.60;;;;;;;;;;5150198;27;20046;-68
2022/08/13 05:49:23;;;;;;;4.70;3.20;;;;;;;;;;5108913;27;20045;-69
2022/08/13 05:51:50;;;;;;;5.40;3.70;;;;;;;;;;5152584;27;20408;-68
2022/08/13 05:54:16;;;;;;;5.63;3.25;;;;;;;;;;5147485;27;20422;-68
2022/08/13 05:56:43;;;;;;;6.57;3.38;;;;;;;;;;5116813;27;20481;-68
2022/08/13 06:03:24;;;;;;;6.13;3.72;;;;;;;;;;5118141;27;20031;-68
2022/08/13 06:04:40;;;;;;;6.28;3.35;;;;;;;;;;5152522;27;20094;-68
2022/08/13 06:07:09;;;;;;;6.35;3.10;;;;;;;;;;5122901;27;20118;-68
2022/08/13 06:09:36;;;;;;;4.70;3.33;;;;;;;;;;5115684;27;20485;-68
2022/08/13 06:12:02;;;;;;;6.78;3.30;;;;;;;;;;5109426;27;20103;-69
2022/08/13 06:14:34;;;;;;;6.45;3.70;;;;;;;;;;5123453;27;20045;-70
2022/08/13 06:17:02;;;;;;;5.43;3.67;;;;;;;;;;5150175;27;20422;-68
2022/08/13 06:19:32;;;;;;;4.80;3.58;;;;;;;;;;5148734;27;20064;-68
2022/08/13 06:22:02;;;;;;;6.32;3.47;;;;;;;;;;5145012;27;20625;-68
2022/08/13 06:24:32;;;;;;;9.23;3.60;;;;;;;;;;5130194;27;20047;-68
2022/08/13 06:27:01;;;;;;;5.53;3.13;;;;;;;;;;5135969;27;20042;-69
2022/08/13 06:29:29;;;;;;;8.70;3.50;;;;;;;;;;5146734;27;20045;-69
2022/08/13 06:31:56;;;;;;;6.38;2.85;;;;;;;;;;5127638;27;20050;-69
2022/08/13 06:34:22;;;;;;;5.35;3.47;;;;;;;;;;5128204;27;20051;-69
2022/08/13 06:36:48;;;;;;;5.65;3.17;;;;;;;;;;5101950;27;20099;-68
2022/08/13 06:39:15;;;;;;;4.40;3.08;;;;;;;;;;5145454;27;20103;-69
2022/08/13 06:41:44;;;;;;;4.38;3.08;;;;;;;;;;5145949;27;20062;-69
2022/08/13 06:44:11;;;;;;;5.97;3.40;;;;;;;;;;5113791;27;20051;-68
2022/08/13 06:46:38;;;;;;;4.70;3.00;;;;;;;;;;5107447;27;20054;-68
2022/08/13 06:49:04;;;;;;;3.92;2.47;;;;;;;;;;5102375;27;20049;-69
2022/08/13 06:51:31;;;;;;;5.32;3.20;;;;;;;;;;5138700;27;20061;-68
2022/08/13 06:53:57;;;;;;;6.28;3.45;;;;;;;;;;5148934;27;20088;-69
2022/08/13 06:56:26;;;;;;;5.85;2.90;;;;;;;;;;5151923;27;20042;-68
2022/08/13 06:58:53;;;;;;;4.47;2.38;;;;;;;;;;5135072;27;20027;-69
2022/08/13 07:01:22;;;;;;;4.57;2.83;;;;;;;;;;5127677;27;20388;-69
2022/08/13 07:03:49;;;;;;;4.93;2.50;;;;;;;;;;5142824;27;20372;-69
2022/08/13 07:06:19;;;;;;;4.03;1.90;;;;;;;;;;5132017;27;20046;-69
2022/08/13 07:08:46;;;;;;;5.53;2.63;;;;;;;;;;5149795;27;20039;-70
2022/08/13 07:11:21;;;;;;;4.20;2.53;;;;;;;;;;5130251;27;20035;-68
2022/08/13 07:13:49;;;;;;;3.97;2.45;;;;;;;;;;5132988;27;20042;-69
2022/08/13 07:16:16;;;;;;;5.30;2.78;;;;;;;;;;5119417;27;20050;-69
2022/08/13 07:18:46;;;;;;;4.80;2.58;;;;;;;;;;5144981;27;20058;-68
2022/08/13 07:21:14;;;;;;;3.28;2.33;;;;;;;;;;5142053;27;20068;-68
2022/08/13 07:23:41;;;;;;;5.43;2.13;;;;;;;;;;5133571;27;20591;-68
2022/08/13 07:26:08;;;;;;;7.07;3.30;;;;;;;;;;5151602;27;20289;-69
2022/08/13 07:28:35;;;;;;;6.68;2.72;;;;;;;;;;5125759;27;20483;-69
2022/08/13 07:31:05;;;;;;;3.92;2.35;;;;;;;;;;5138614;27;20031;-69
2022/08/13 07:33:34;;;;;;;4.43;2.63;;;;;;;;;;5110163;27;20046;-68
2022/08/13 07:36:03;;;;;;;5.03;3.03;;;;;;;;;;5150274;27;20083;-69
2022/08/13 07:38:31;;;;;;;3.92;2.33;;;;;;;;;;5126367;27;20042;-68
2022/08/13 07:40:59;;;;;;;3.00;2.53;;;;;;;;;;5102522;27;20035;-69
2022/08/13 07:43:26;;;;;;;4.55;2.60;;;;;;;;;;5101919;27;20407;-69
2022/08/13 07:46:10;;;;;;;5.60;2.15;;;;;;;;;;5129906;27;20077;-68
2022/08/13 07:48:40;;;;;;;3.92;2.05;;;;;;;;;;5142719;27;20053;-69
2022/08/13 07:51:10;;;;;;;4.68;2.08;;;;;;;;;;5131191;27;20038;-69
2022/08/13 07:53:39;;;;;;;6.97;2.33;;;;;;;;;;5150194;27;20039;-69
2022/08/13 07:56:06;;;;;;;3.33;1.95;;;;;;;;;;5082413;27;20404;-68
2022/08/13 07:58:33;;;;;;;3.88;2.00;;;;;;;;;;5122033;27;20202;-69
2022/08/13 08:01:00;;;;;;;6.43;2.40;;;;;;;;;;5147061;27;20031;-69
2022/08/13 08:03:32;;;;;;;3.85;2.28;;;;;;;;;;5131123;27;20050;-69
2022/08/13 08:05:59;;;;;;;6.55;2.47;;;;;;;;;;5133233;27;20050;-69
2022/08/13 08:08:27;;;;;;;3.90;1.90;;;;;;;;;;5145704;27;20043;-69
2022/08/13 08:10:54;;;;;;;2.53;1.75;;;;;;;;;;5112715;27;20031;-68
2022/08/13 08:13:20;;;;;;;2.38;2.03;;;;;;;;;;5122007;27;20069;-68
2022/08/13 08:15:46;;;;;;;4.35;2.00;;;;;;;;;;5150785;27;20113;-68
2022/08/13 08:18:13;;;;;;;5.88;2.05;;;;;;;;;;5131059;27;20050;-68
2022/08/13 08:20:43;;;;;;;4.65;2.40;;;;;;;;;;5149207;27;20499;-68
2022/08/13 08:23:12;;;;;;;4.45;2.25;;;;;;;;;;5118638;27;20043;-68
2022/08/13 08:25:39;;;;;;;4.97;2.40;;;;;;;;;;5119043;27;20087;-68
2022/08/13 08:28:05;;;;;;;4.40;1.80;;;;;;;;;;5120514;27;20045;-68
2022/08/13 08:30:33;;;;;;;4.13;2.00;;;;;;;;;;5126864;27;20038;-69
2022/08/13 08:32:59;;;;;;;5.78;2.38;;;;;;;;;;5132781;27;20105;-68
2022/08/13 08:35:25;;;;;;;4.15;2.22;;;;;;;;;;5096260;27;20407;-69
2022/08/13 08:43:35;;;;;;;4.07;2.08;;;;;;;;;;5123647;27;20164;-69
2022/08/13 08:46:03;;;;;;;4.32;2.10;;;;;;;;;;5140764;27;20039;-69
2022/08/13 08:48:30;;;;;;;3.00;1.90;;;;;;;;;;5142062;27;20480;-69
2022/08/13 08:50:57;;;;;;;8.00;2.13;;;;;;;;;;5146400;27;20046;-69
2022/08/13 08:53:24;;;;;;;3.97;1.77;;;;;;;;;;5104495;28;20043;-69
2022/08/13 08:55:51;;;;;;;2.10;1.70;;;;;;;;;;5138869;27;20042;-69
2022/08/13 08:58:21;;;;;;;7.28;2.22;;;;;;;;;;5125536;27;20062;-69
2022/08/13 09:00:48;;;;;;;4.22;2.22;;;;;;;;;;5127813;27;20472;-69
2022/08/13 09:03:19;;;;;;;5.13;2.10;;;;;;;;;;5140472;27;20043;-69
2022/08/13 09:05:48;;;;;;;3.22;2.35;;;;;;;;;;5106657;28;20059;-69
2022/08/13 09:08:16;;;;;;;3.80;1.70;;;;;;;;;;5127280;27;20129;-69
2022/08/13 09:10:44;;;;;;;2.78;1.95;;;;;;;;;;5149029;27;20367;-69
2022/08/13 09:13:19;;;;;;;5.22;2.35;;;;;;;;;;5131185;27;20080;-69
2022/08/13 09:15:48;;;;;;;2.78;2.03;;;;;;;;;;5095566;28;20035;-69
2022/08/13 09:18:21;;;;;;;9.43;2.33;;;;;;;;;;5117797;28;20050;-69
2022/08/13 09:20:49;;;;;;;3.25;2.00;;;;;;;;;;5132716;27;20289;-69
2022/08/13 09:23:16;;;;;;;3.55;1.55;;;;;;;;;;5147167;27;20034;-69
2022/08/13 09:25:51;;;;;;;4.28;1.60;;;;;;;;;;5135487;27;20066;-69
2022/08/13 09:28:26;;;;;;;3.53;1.45;;;;;;;;;;5118355;27;20126;-69
2022/08/13 09:30:53;;;;;;;3.17;1.95;;;;;;;;;;5149406;27;20457;-69
2022/08/13 09:33:21;;;;;;;4.43;1.95;;;;;;;;;;5154103;27;20045;-69
2022/08/13 09:35:49;;;;;;;3.30;1.83;;;;;;;;;;5152310;27;20076;-68
2022/08/13 09:38:15;;;;;;;2.83;1.90;;;;;;;;;;5151523;27;20049;-69
2022/08/13 09:40:56;;;;;;;3.13;2.00;;;;;;;;;;5151142;27;20038;-69
2022/08/13 09:43:29;;;;;;;9.48;2.20;;;;;;;;;;5123577;27;20454;-69
2022/08/13 09:45:56;;;;;;;4.57;1.80;;;;;;;;;;5134813;27;20084;-70
2022/08/13 09:48:24;;;;;;;3.95;1.95;;;;;;;;;;5129831;27;20122;-70
2022/08/13 09:50:52;;;;;;;3.88;1.88;;;;;;;;;;5150031;27;20035;-70
2022/08/13 09:53:18;;;;;;;3.33;1.83;;;;;;;;;;5139977;27;20099;-68
2022/08/13 09:55:45;;;;;;;4.25;2.00;;;;;;;;;;5133836;27;20385;-67
2022/08/13 09:58:12;;;;;;;2.83;1.60;;;;;;;;;;5135096;27;20193;-68
2022/08/13 10:00:40;;;;;;;7.07;1.98;;;;;;;;;;5151756;27;20043;-67
2022/08/13 10:03:07;;;;;;;2.85;1.65;;;;;;;;;;5114013;27;20087;-67
2022/08/13 10:05:36;;;;;;;3.17;1.67;;;;;;;;;;5102042;27;20043;-67
2022/08/13 10:08:04;;;;;;;2.60;1.67;;;;;;;;;;5111714;27;20045;-69
2022/08/13 10:10:30;;;;;;;8.02;1.98;;;;;;;;;;5103529;27;20106;-68
2022/08/13 10:12:59;;;;;;;2.55;1.65;;;;;;;;;;5146641;27;20035;-69
2022/08/13 10:15:25;;;;;;;2.85;1.48;;;;;;;;;;5152784;27;20038;-68
2022/08/13 10:17:55;;;;;;;3.15;2.00;;;;;;;;;;5108195;27;20092;-68
2022/08/13 10:20:29;;;;;;;4.75;1.45;;;;;;;;;;5108402;27;20069;-68
2022/08/13 10:22:56;;;;;;;2.33;1.58;;;;;;;;;;5132924;27;20049;-68
2022/08/13 10:25:26;;;;;;;3.80;1.70;;;;;;;;;;5119476;27;20047;-69
2022/08/13 10:27:53;;;;;;;4.43;1.55;;;;;;;;;;5133105;27;20039;-68
2022/08/13 10:30:21;;;;;;;4.20;1.70;;;;;;;;;;5149483;27;20030;-69
2022/08/13 10:32:48;;;;;;;4.85;2.13;;;;;;;;;;5133494;27;20380;-68
2022/08/13 10:35:17;;;;;;;4.25;2.08;;;;;;;;;;5128946;27;20130;-68
2022/08/13 10:37:53;;;;;;;4.07;1.80;;;;;;;;;;5105242;27;20038;-69
2022/08/13 10:40:20;;;;;;;6.80;1.88;;;;;;;;;;5143977;27;20051;-69
2022/08/13 10:42:46;;;;;;;3.60;1.50;;;;;;;;;;5130042;27;20047;-68
2022/08/13 10:45:13;;;;;;;2.97;1.80;;;;;;;;;;5128765;27;20079;-69
2022/08/13 10:47:47;;;;;;;5.80;1.90;;;;;;;;;;5122704;27;20035;-68
2022/08/13 10:50:17;;;;;;;2.60;1.65;;;;;;;;;;5120433;27;20043;-68
2022/08/13 10:52:43;;;;;;;2.95;1.55;;;;;;;;;;5141124;27;20035;-68
2022/08/13 10:55:11;;;;;;;4.00;1.90;;;;;;;;;;5130079;27;20046;-68
2022/08/13 10:57:43;;;;;;;3.47;1.50;;;25.00;91.40;;;;;;5146057;27;20555;-68
2022/08/13 11:00:12;;;;;;;3.70;2.05;;;27.90;58.60;;;;;;5141032;27;20035;-68
2022/08/13 11:02:38;;;;;;;3.00;1.70;;;27.80;58.40;;;;;;5142256;27;20038;-68
2022/08/13 11:05:06;;;;;;;3.67;1.60;;;27.80;58.30;;;;;;5122060;27;20035;-68
2022/08/13 11:07:34;;;;;;;5.60;1.90;;;27.90;58.40;;;;;;5121633;27;20046;-68
2022/08/13 11:10:01;;;;;;;4.20;1.92;;;27.90;58.40;;;;;;5117575;27;20035;-68
2022/08/13 11:12:27;;;;;;;2.55;1.67;;;28.00;57.20;;;;;;5122915;27;20043;-68
2022/08/13 11:14:53;;;;;;;2.53;1.50;;;28.10;57.40;;;;;;5132893;27;20437;-68
2022/08/13 11:17:20;;;;;;;6.03;2.03;;;28.10;57.60;;;;;;5112575;27;20043;-68
2022/08/13 11:19:48;;;;;;;3.63;1.67;;;28.10;57.50;;;;;;5133021;27;20121;-68
2022/08/13 11:22:15;;;;;;;4.63;1.83;;;28.10;58.10;;;;;;5130117;27;20038;-68
2022/08/13 11:24:42;;;;;;;2.10;1.50;;;28.10;57.50;;;;;;5128069;27;20449;-68
2022/08/13 11:27:07;;;;;;;2.53;1.40;;;28.20;57.70;;;;;;5127736;27;20035;-68
2022/08/13 11:29:34;;;;;;;2.92;2.15;;;;;;;;;;5127344;27;20473;-68
2022/08/13 11:32:00;;;;;;;5.55;2.00;;;;;;;;;;5123145;27;20555;-68
2022/08/13 11:34:26;;;;;;;2.42;1.70;;;;;;;;;;5150763;27;20081;-68
2022/08/13 11:36:53;;;;;;;2.95;1.45;;;;;;;;;;5122804;27;20035;-68
2022/08/13 11:39:19;;;;;;;4.68;1.80;;;;;;;;;;5126434;27;20031;-68
2022/08/13 11:41:45;;;;;;;3.13;2.13;;;;;;;;;;5126784;27;20038;-68
2022/08/13 11:44:12;;;;;;;3.42;1.80;;;;;;;;;;5110287;27;20054;-68
2022/08/13 11:46:38;;;;;;;1.83;1.40;;;;;;;;;;5142118;27;20163;-68
2022/08/13 11:49:05;;;;;;;3.70;1.90;;;;;;;;;;5128488;27;20508;-69
2022/08/13 11:51:32;;;;;;;3.83;1.58;;;;;;;;;;5149618;27;20388;-68
2022/08/13 11:53:58;;;;;;;4.18;1.70;;;;;;;;;;5123431;27;20054;-68
2022/08/13 11:56:24;;;;;;;2.55;1.58;;;;;;;;;;5122979;27;20212;-68
2022/08/13 11:58:55;;;;;;;1.95;1.40;;;;;;;;;;5102090;27;20031;-68
2022/08/13 12:01:22;;;;;;;3.63;1.50;;;;;;;;;;5147200;27;20062;-68
2022/08/13 12:03:48;;;;;;;2.10;1.60;;;;;;;;;;5126175;27;20038;-68
2022/08/13 12:06:15;;;;;;;5.25;1.83;;;;;;;;;;5121964;27;20080;-69
2022/08/13 12:08:41;;;;;;;4.57;1.65;;;;;;;;;;5125937;27;20270;-68
2022/08/13 12:11:07;;;;;;;4.30;1.92;;;;;;;;;;5124826;27;20506;-68
2022/08/13 12:13:34;;;;;;;2.40;2.13;;;;;;;;;;5131084;27;20026;-68
2022/08/13 12:16:00;;;;;;;3.28;1.30;;;;;;;;;;5126617;27;20042;-68
2022/08/13 12:18:26;;;;;;;3.22;1.58;;;;;;;;;;5124891;27;20043;-69
2022/08/13 12:20:52;;;;;;;4.05;1.70;;;;;;;;;;5130879;27;20041;-68
2022/08/13 12:23:18;;;;;;;1.92;1.25;;;;;;;;;;5129208;27;20047;-68
2022/08/13 12:25:44;;;;;;;1.48;1.38;;;;;;;;;;5098917;28;20473;-68
2022/08/13 12:28:19;;;;;;;2.58;1.45;;;;;;;;;;5124024;27;20050;-68
2022/08/13 12:30:49;;;;;;;2.35;1.90;;;;;;;;;;5141685;27;20066;-68
2022/08/13 12:33:16;;;;;;;8.38;1.90;;;;;;;;;;5150532;27;20042;-69
2022/08/13 12:35:43;;;;;;;2.88;1.83;;;28.30;58.10;;;;;;5126476;27;20602;-68
2022/08/13 12:38:10;;;;;;;3.13;1.48;;;;;;;;;;5130419;27;20404;-68
2022/08/13 12:40:37;;;;;;;2.33;1.55;;;;;;;;;;5127641;27;20070;-68
2022/08/13 12:43:04;;;;;;;2.08;1.30;;;;;;;;;;5129364;27;20150;-68
2022/08/13 12:45:30;;;;;;;2.45;1.58;;;;;;;;;;5125751;27;20284;-68
2022/08/13 12:48:01;;;;;;;4.25;1.73;;;;;;;;;;5123836;27;20055;-68
2022/08/13 12:50:27;;;;;;;2.05;1.50;;;;;;;;;;5120518;28;20043;-69
2022/08/13 12:52:53;;;;;;;2.10;1.70;;;;;;;;;;5142617;27;20050;-69
2022/08/13 12:55:20;;;;;;;2.97;1.55;;;;;;;;;;5125654;27;20046;-68
2022/08/13 12:57:46;;;;;;;3.65;1.75;;;;;;;;;;5108857;27;20046;-68
2022/08/13 13:00:12;;;;;;;4.25;2.00;;;;;;;;;;5122559;27;20035;-68
2022/08/13 13:02:39;;;;;;;2.38;1.50;;;;;;;;;;5140861;27;20042;-68
2022/08/13 13:05:06;;;;;;;5.43;2.28;;;;;;;;;;5107634;27;20573;-68
2022/08/13 13:07:32;;;;;;;2.92;1.60;;;;;;;;;;5154087;27;20077;-68
2022/08/13 13:09:59;;;;;;;4.03;1.98;;;;;;;;;;5117414;27;20038;-68
2022/08/13 13:12:26;;;;;;;4.60;1.92;;;;;;;;;;5123920;27;20126;-68
2022/08/13 13:14:52;;;;;;;2.60;1.65;;;;;;;;;;5115869;27;20050;-68
2022/08/13 13:17:19;;;;;;;3.13;1.70;;;;;;;;;;5103333;27;20526;-68
2022/08/13 13:19:45;;;;;;;4.43;2.13;;;;;;;;;;5105785;27;20369;-68
2022/08/13 13:22:11;;;;;;;2.90;1.83;;;;;;;;;;5134531;27;20071;-69
2022/08/13 13:24:40;;;;;;;5.05;1.95;;;;;;;;;;5132597;27;20058;-69
2022/08/13 13:27:07;;;;;;;2.33;1.90;;;;;;;;;;5100068;27;20062;-68
2022/08/13 13:29:38;;;;;;;3.65;1.85;;;;;;;;;;5108649;27;20074;-68
2022/08/13 13:32:11;;;;;;;2.40;1.80;;;;;;;;;;5130507;27;20091;-68
2022/08/13 13:34:38;;;;;;;2.53;2.00;;;;;;;;;;5146798;27;20050;-68
2022/08/13 13:37:04;;;;;;;3.45;1.83;;;;;;;;;;5133961;27;20284;-68
2022/08/13 13:39:32;;;;;;;7.35;2.03;;;;;;;;;;5135534;27;20116;-69
2022/08/13 13:41:58;;;;;;;4.22;2.08;;;;;;;;;;5133492;27;20073;-68
2022/08/13 13:44:24;;;;;;;1.80;1.60;;;;;;;;;;5085763;27;20051;-68
2022/08/13 13:46:50;;;;;;;2.42;2.05;;;;;;;;;;5116914;27;20043;-68
2022/08/13 13:49:16;;;;;;;4.50;2.22;;;;;;;;;;5110420;27;20034;-68
2022/08/13 13:51:42;;;;;;;4.38;1.92;;;;;;;;;;5116660;27;20074;-69
2022/08/13 13:54:09;;;;;;;2.83;1.60;;;;;;;;;;5117515;27;20069;-68
2022/08/13 13:56:35;;;;;;;4.65;2.08;;;;;;;;;;5121177;27;20046;-68
2022/08/13 13:59:01;;;;;;;3.55;1.77;;;;;;;;;;5137216;27;20433;-68
2022/08/13 14:01:28;;;;;;;1.83;1.65;;;;;;;;;;5127352;27;20043;-69
2022/08/13 14:03:54;;;;;;;2.35;1.83;;;;;;;;;;5133435;27;20612;-68
2022/08/13 14:06:21;;;;;;;3.10;1.73;;;;;;;;;;5149654;27;20038;-68
2022/08/13 14:08:50;;;;;;;4.55;1.98;;;;;;;;;;5124717;27;20496;-68
2022/08/13 14:11:17;;;;;;;2.88;2.00;;;;;;;;;;5116606;27;20049;-69
2022/08/13 14:13:43;;;;;;;4.43;2.20;;;;;;;;;;5107000;27;20043;-68
2022/08/13 14:16:10;;;;;;;4.05;1.98;;;;;;;;;;5132537;27;20422;-68
2022/08/13 14:18:40;;;;;;;3.00;1.80;;;;;;;;;;5131779;27;20039;-68
2022/08/13 14:21:07;;;;;;;4.13;2.30;;;;;;;;;;5132495;27;20042;-68
2022/08/13 14:23:34;;;;;;;2.65;1.98;;;;;;;;;;5130477;27;20041;-68
2022/08/13 14:26:02;;;;;;;3.15;1.67;;;;;;;;;;5117676;27;20393;-68
2022/08/13 14:28:28;;;;;;;2.60;1.77;;;;;;;;;;5144779;27;20046;-68
2022/08/13 14:30:55;;;;;;;2.10;1.88;;;;;;;;;;5146535;27;20443;-68
2022/08/13 14:33:22;;;;;;;2.80;1.98;;;;;;;;;;5126495;27;20038;-68
2022/08/13 14:35:48;;;;;;;5.35;2.05;;;;;;;;;;5128316;27;20381;-68
2022/08/13 14:38:14;;;;;;;3.58;2.20;;;;;;;;;;5119326;27;20056;-68
2022/08/13 14:40:42;;;;;;;5.82;2.05;;;;;;;;;;5103914;27;20047;-68
2022/08/13 14:43:08;;;;;;;2.55;1.80;;;;;;;;;;5103793;27;20444;-68
2022/08/13 14:45:47;;;;;;;3.58;2.05;;;;;;;;;;5110073;27;20140;-69
2022/08/13 14:48:20;;;;;;;16.80;2.45;;;;;;;;;;5141619;27;20045;-68
2022/08/13 14:50:47;;;;;;;2.25;1.90;;;;;;;;;;5123871;27;20104;-69
2022/08/13 14:53:15;;;;;;;2.08;1.80;;;;;;;;;;5114711;27;20035;-69
2022/08/13 14:55:44;;;;;;;2.92;1.90;;;;;;;;;;5140047;27;20070;-69
2022/08/13 14:58:10;;;;;;;2.47;2.03;;;;;;;;;;5133902;27;20046;-68